Greenville, MI (48838)

6:59 PM EST on January 21, 2017 (GMT -0500)
5 miles west of greenville | | Change Station
Active Advisory: Dense Fog Advisory

Elev 866 ft 43.17 °N, 85.35 °W | Updated 24 seconds ago

Mostly Cloudy
Mostly Cloudy
47.5 °F
Feels Like 48 °F
N
0.0
Wind Variable Wind from SSW
Gusts 0.0 mph

Today
High -- | Low -- °F
--% Chance of Precip.
Yesterday
High -- | Low -- °F
Precip. -- in
Pressure 29.54 in
Visibility 10.0 miles
Clouds Clear
Windchill 48 °F
Dew Point 47 °F
Humidity 99%
Rainfall 0.04 in
Snow Depth Not available.
8:06 AM 5:39 PM
Waning Crescent, 31% visible
METAR KY70 212333Z AUTO 16006KT 10SM CLR 09/07 A2954 RMK AO2 T00860070
Pressure 29.54 in
Visibility 10.0 miles
Clouds Clear
Windchill 48 °F
Dew Point 47 °F
Humidity 99%
Rainfall 0.04 in
Snow Depth Not available.
8:06 AM 5:39 PM
Waning Crescent, 31% visible
METAR KY70 212333Z AUTO 16006KT 10SM CLR 09/07 A2954 RMK AO2 T00860070

Get Your Daily Forecast Email!

Thanks for signing up!

Be on the lookout for a verification email in your inbox.

You'll start receiving the daily forecast at 8 AM.

×

10-Day Weather Forecast

Almanac

Astronomy

Jan. 21, 2017 Rise Set
Actual Time
Civil Twilight
Nautical Twilight
Astronomical Twilight
Moon
Length of Visible Light
Length of Day
Tomorrow will be .
, % of the Moon is Illuminated

Today's Extremes

State Highs State Lows

Community

WunderPhotos

Upload Photos

1,962,540 photos uploaded!

WunderBlog® & News

Nearby

Air Quality

  Air Quality AQ Index Pollutant
Not available.

Snow Depth

Station Depth Elevation

Earthquake Activity

City Distance Mag. Time & Date
Minimum magnitude displayed is 2.5.

Coastal Water Temperatures

Place Temperature

Stations

Nearby Weather Stations

Station Location Temp. Windchill Dew Point Humidity Wind Precip. Elev Updated Type
                   

Watches & Warnings

Dense Fog Advisory
Issued: 4:09 PM EST Jan. 21, 2017 – National Weather Service

... Dense fog advisory in effect until 10 am EST Sunday...

The National Weather Service in Grand Rapids has issued a dense
fog advisory... which is in effect until 10 am EST Sunday.

Hazardous weather...

* areas of dense fog will continue over central Michigan.
   Widespread dense fog is expected this evening through Sunday
   morning.

* Visibilities will be one-quarter mile or less.

* Fog will gradually dissipate through Sunday morning.

Impacts...

* hazardous driving conditions in reduced visibilities.

Precautionary/preparedness actions...

* if driving... slow down... use low beam headlights... and leave
plenty of distance ahead of you.